Caryville, TN (37714)

12:19 PM EDT on May 25, 2017 (GMT -0400)
Rocky Top | | Change Station

Elev 1201 ft 36.22 °N, 84.14 °W | Updated 10 seconds ago

Overcast
Overcast
58.8 °F
Feels Like 58.8 °F
N
2.7
Wind Variable Wind from South

Today
High -- | Low -- °F
--% Chance of Precip.
Yesterday
High -- | Low -- °F
Precip. -- in
Pressure 29.68 in
Visibility 10.0 miles
Clouds Few 2600 ft
Scattered Clouds 3400 ft
Mostly Cloudy 12000 ft
Dew Point 54 °F
Humidity 85%
Rainfall 0.04 in
Snow Depth Not available.
6:23 AM 8:44 PM
Waning Crescent, 0% visible
METAR KOQT 251553Z AUTO 23007KT 190V270 10SM FEW026 SCT034 BKN120 17/11 A2969 RMK AO2 SLP050 T01670106
Pressure 29.68 in
Visibility 10.0 miles
Clouds Few 2600 ft
Scattered Clouds 3400 ft
Mostly Cloudy 12000 ft
Dew Point 54 °F
Humidity 85%
Rainfall 0.04 in
Snow Depth Not available.
6:23 AM 8:44 PM
Waning Crescent, 0% visible
METAR KOQT 251553Z AUTO 23007KT 190V270 10SM FEW026 SCT034 BKN120 17/11 A2969 RMK AO2 SLP050 T01670106

Get Severe Weather Alerts

Thanks for signing up!

Be on the lookout for a verification email in your inbox.

You'll start receiving the daily forecast at 6 AM.

×

10-Day Weather Forecast

Almanac

Astronomy

May. 25, 2017 Rise Set
Actual Time
Civil Twilight
Nautical Twilight
Astronomical Twilight
Moon
Length of Visible Light
Length of Day
Tomorrow will be .
, % of the Moon is Illuminated

Today's Extremes

State Highs State Lows

Community

WunderPhotos

Category 6

Welcome to Category 6. This is the collective home for Weather Underground's featured writeups by Dr. Jeff Masters (right), Bob Henson (left), Chris Burt, and other regular contributors.

Nearby

Air Quality

  Air Quality AQ Index Pollutant
Not available.

Snow Depth

Station Depth Elevation

Earthquake Activity

City Distance Mag. Time & Date
Minimum magnitude displayed is 2.5.

Coastal Water Temperatures

Place Temperature

Stations

Nearby Weather Stations

Station Location Temp. Windchill Dew Point Humidity Wind Precip. Elev Updated Type
                   

Watches & Warnings

There are currently no watches in effect.